sensor_id;sensor_type;location;lat;lon;timestamp;pressure;altitude;pressure_sealevel;temperature
20289;BMP180;10303;51.960;8.372;2023-08-12T00:00:52;100672.00;;;23.90
20289;BMP180;10303;51.960;8.372;2023-08-12T00:03:18;100672.00;;;23.90
20289;BMP180;10303;51.960;8.372;2023-08-12T00:05:45;100700.00;;;23.90
20289;BMP180;10303;51.960;8.372;2023-08-12T00:08:12;100712.00;;;23.90
20289;BMP180;10303;51.960;8.372;2023-08-12T00:10:38;100710.00;;;23.80
20289;BMP180;10303;51.960;8.372;2023-08-12T00:13:04;100706.00;;;23.80
20289;BMP180;10303;51.960;8.372;2023-08-12T00:15:30;100707.00;;;23.70
20289;BMP180;10303;51.960;8.372;2023-08-12T00:17:56;100717.00;;;23.70
20289;BMP180;10303;51.960;8.372;2023-08-12T00:20:22;100725.00;;;23.70
20289;BMP180;10303;51.960;8.372;2023-08-12T00:22:48;100728.00;;;23.70
20289;BMP180;10303;51.960;8.372;2023-08-12T00:25:15;100708.00;;;23.70
20289;BMP180;10303;51.960;8.372;2023-08-12T00:27:41;100706.00;;;23.70
20289;BMP180;10303;51.960;8.372;2023-08-12T00:30:08;100700.00;;;23.70
20289;BMP180;10303;51.960;8.372;2023-08-12T00:32:35;100702.00;;;23.70
20289;BMP180;10303;51.960;8.372;2023-08-12T00:35:01;100705.00;;;23.80
20289;BMP180;10303;51.960;8.372;2023-08-12T00:37:29;100714.00;;;23.80
20289;BMP180;10303;51.960;8.372;2023-08-12T00:39:55;100714.00;;;23.80
20289;BMP180;10303;51.960;8.372;2023-08-12T00:42:23;100697.00;;;23.80
20289;BMP180;10303;51.960;8.372;2023-08-12T00:44:49;100692.00;;;23.80
20289;BMP180;10303;51.960;8.372;2023-08-12T00:47:16;100697.00;;;23.80
20289;BMP180;10303;51.960;8.372;2023-08-12T00:49:42;100718.00;;;23.80
20289;BMP180;10303;51.960;8.372;2023-08-12T00:52:16;100732.00;;;23.80
20289;BMP180;10303;51.960;8.372;2023-08-12T00:54:44;100735.00;;;23.80
20289;BMP180;10303;51.960;8.372;2023-08-12T00:57:10;100733.00;;;23.80
20289;BMP180;10303;51.960;8.372;2023-08-12T00:59:37;100717.00;;;23.80
20289;BMP180;10303;51.960;8.372;2023-08-12T01:02:05;100704.00;;;23.70
20289;BMP180;10303;51.960;8.372;2023-08-12T01:04:31;100704.00;;;23.80
20289;BMP180;10303;51.960;8.372;2023-08-12T01:06:57;100698.00;;;23.70
20289;BMP180;10303;51.960;8.372;2023-08-12T01:09:23;100695.00;;;23.70
20289;BMP180;10303;51.960;8.372;2023-08-12T01:12:09;100693.00;;;23.70
20289;BMP180;10303;51.960;8.372;2023-08-12T01:14:51;100690.00;;;23.70
20289;BMP180;10303;51.960;8.372;2023-08-12T01:17:22;100681.00;;;23.70
20289;BMP180;10303;51.960;8.372;2023-08-12T01:19:49;100675.00;;;23.70
20289;BMP180;10303;51.960;8.372;2023-08-12T01:22:20;100688.00;;;23.70
20289;BMP180;10303;51.960;8.372;2023-08-12T01:24:46;100692.00;;;23.70
20289;BMP180;10303;51.960;8.372;2023-08-12T01:27:13;100689.00;;;23.80
20289;BMP180;10303;51.960;8.372;2023-08-12T01:29:44;100688.00;;;23.70
20289;BMP180;10303;51.960;8.372;2023-08-12T01:32:43;100687.00;;;23.70
20289;BMP180;10303;51.960;8.372;2023-08-12T01:35:28;100686.00;;;23.70
20289;BMP180;10303;51.960;8.372;2023-08-12T01:37:59;100689.00;;;23.70
20289;BMP180;10303;51.960;8.372;2023-08-12T01:40:28;100703.00;;;23.70
20289;BMP180;10303;51.960;8.372;2023-08-12T01:42:55;100702.00;;;23.70
20289;BMP180;10303;51.960;8.372;2023-08-12T01:45:22;100700.00;;;23.70
20289;BMP180;10303;51.960;8.372;2023-08-12T01:47:48;100700.00;;;23.70
20289;BMP180;10303;51.960;8.372;2023-08-12T01:50:17;100702.00;;;23.60
20289;BMP180;10303;51.960;8.372;2023-08-12T01:52:44;100706.00;;;23.60
20289;BMP180;10303;51.960;8.372;2023-08-12T01:55:10;100697.00;;;23.60
20289;BMP180;10303;51.960;8.372;2023-08-12T01:57:36;100699.00;;;23.60
20289;BMP180;10303;51.960;8.372;2023-08-12T02:00:05;100697.00;;;23.60
20289;BMP180;10303;51.960;8.372;2023-08-12T02:02:42;100700.00;;;23.60
20289;BMP180;10303;51.960;8.372;2023-08-12T02:05:12;100684.00;;;23.60
20289;BMP180;10303;51.960;8.372;2023-08-12T02:07:38;100675.00;;;23.60
20289;BMP180;10303;51.960;8.372;2023-08-12T02:10:05;100685.00;;;23.60
20289;BMP180;10303;51.960;8.372;2023-08-12T02:12:31;100680.00;;;23.60
20289;BMP180;10303;51.960;8.372;2023-08-12T02:14:57;100689.00;;;23.60
20289;BMP180;10303;51.960;8.372;2023-08-12T02:17:23;100688.00;;;23.60
20289;BMP180;10303;51.960;8.372;2023-08-12T02:19:51;100701.00;;;23.60
20289;BMP180;10303;51.960;8.372;2023-08-12T02:22:17;100700.00;;;23.60
20289;BMP180;10303;51.960;8.372;2023-08-12T02:24:43;100699.00;;;23.60
20289;BMP180;10303;51.960;8.372;2023-08-12T02:27:09;100704.00;;;23.50
20289;BMP180;10303;51.960;8.372;2023-08-12T02:29:35;100692.00;;;23.50
20289;BMP180;10303;51.960;8.372;2023-08-12T02:32:01;100693.00;;;23.50
20289;BMP180;10303;51.960;8.372;2023-08-12T02:34:28;100695.00;;;23.50
20289;BMP180;10303;51.960;8.372;2023-08-12T02:36:54;100702.00;;;23.50
20289;BMP180;10303;51.960;8.372;2023-08-12T02:39:20;100690.00;;;23.50
20289;BMP180;10303;51.960;8.372;2023-08-12T02:41:46;100679.00;;;23.50
20289;BMP180;10303;51.960;8.372;2023-08-12T02:44:12;100676.00;;;23.50
20289;BMP180;10303;51.960;8.372;2023-08-12T02:46:38;100675.00;;;23.50
20289;BMP180;10303;51.960;8.372;2023-08-12T02:49:04;100690.00;;;23.50
20289;BMP180;10303;51.960;8.372;2023-08-12T02:51:30;100685.00;;;23.40
20289;BMP180;10303;51.960;8.372;2023-08-12T02:53:56;100679.00;;;23.40
20289;BMP180;10303;51.960;8.372;2023-08-12T02:56:22;100686.00;;;23.50
20289;BMP180;10303;51.960;8.372;2023-08-12T02:58:48;100690.00;;;23.40
20289;BMP180;10303;51.960;8.372;2023-08-12T03:01:14;100696.00;;;23.40
20289;BMP180;10303;51.960;8.372;2023-08-12T03:03:41;100699.00;;;23.40
20289;BMP180;10303;51.960;8.372;2023-08-12T03:06:07;100690.00;;;23.40
20289;BMP180;10303;51.960;8.372;2023-08-12T03:08:33;100690.00;;;23.40
20289;BMP180;10303;51.960;8.372;2023-08-12T03:11:01;100694.00;;;23.40
20289;BMP180;10303;51.960;8.372;2023-08-12T03:13:28;100686.00;;;23.40
20289;BMP180;10303;51.960;8.372;2023-08-12T03:15:55;100689.00;;;23.40
20289;BMP180;10303;51.960;8.372;2023-08-12T03:18:22;100683.00;;;23.40
20289;BMP180;10303;51.960;8.372;2023-08-12T03:20:48;100688.00;;;23.40
20289;BMP180;10303;51.960;8.372;2023-08-12T03:23:15;100694.00;;;23.40
20289;BMP180;10303;51.960;8.372;2023-08-12T03:25:42;100688.00;;;23.40
20289;BMP180;10303;51.960;8.372;2023-08-12T03:28:08;100685.00;;;23.40
20289;BMP180;10303;51.960;8.372;2023-08-12T03:30:35;100684.00;;;23.40
20289;BMP180;10303;51.960;8.372;2023-08-12T03:33:01;100681.00;;;23.40
20289;BMP180;10303;51.960;8.372;2023-08-12T03:35:31;100681.00;;;23.40
20289;BMP180;10303;51.960;8.372;2023-08-12T03:37:57;100680.00;;;23.40
20289;BMP180;10303;51.960;8.372;2023-08-12T03:40:24;100686.00;;;23.40
20289;BMP180;10303;51.960;8.372;2023-08-12T03:42:50;100681.00;;;23.40
20289;BMP180;10303;51.960;8.372;2023-08-12T03:45:19;100670.00;;;23.40
20289;BMP180;10303;51.960;8.372;2023-08-12T03:47:46;100666.00;;;23.40
20289;BMP180;10303;51.960;8.372;2023-08-12T03:50:12;100673.00;;;23.40
20289;BMP180;10303;51.960;8.372;2023-08-12T03:52:38;100668.00;;;23.40
20289;BMP180;10303;51.960;8.372;2023-08-12T03:55:04;100672.00;;;23.40
20289;BMP180;10303;51.960;8.372;2023-08-12T03:57:31;100669.00;;;23.40
20289;BMP180;10303;51.960;8.372;2023-08-12T03:59:58;100668.00;;;23.40
20289;BMP180;10303;51.960;8.372;2023-08-12T04:02:24;100666.00;;;23.40
20289;BMP180;10303;51.960;8.372;2023-08-12T04:04:50;100662.00;;;23.40
20289;BMP180;10303;51.960;8.372;2023-08-12T04:07:15;100671.00;;;23.40
20289;BMP180;10303;51.960;8.372;2023-08-12T04:09:41;100656.00;;;23.40
20289;BMP180;10303;51.960;8.372;2023-08-12T04:12:07;100659.00;;;23.40
20289;BMP180;10303;51.960;8.372;2023-08-12T04:14:33;100658.00;;;23.40
20289;BMP180;10303;51.960;8.372;2023-08-12T04:16:59;100654.00;;;23.40
20289;BMP180;10303;51.960;8.372;2023-08-12T04:19:25;100644.00;;;23.40
20289;BMP180;10303;51.960;8.372;2023-08-12T04:21:51;100659.00;;;23.40
20289;BMP180;10303;51.960;8.372;2023-08-12T04:24:17;100658.00;;;23.40
20289;BMP180;10303;51.960;8.372;2023-08-12T04:26:43;100639.00;;;23.40
20289;BMP180;10303;51.960;8.372;2023-08-12T04:29:10;100644.00;;;23.40
20289;BMP180;10303;51.960;8.372;2023-08-12T04:31:40;100636.00;;;23.40
20289;BMP180;10303;51.960;8.372;2023-08-12T04:34:06;100632.00;;;23.50
20289;BMP180;10303;51.960;8.372;2023-08-12T04:36:32;100630.00;;;23.50
20289;BMP180;10303;51.960;8.372;2023-08-12T04:39:01;100622.00;;;23.50
20289;BMP180;10303;51.960;8.372;2023-08-12T04:41:28;100626.00;;;23.50
20289;BMP180;10303;51.960;8.372;2023-08-12T04:43:55;100628.00;;;23.50
20289;BMP180;10303;51.960;8.372;2023-08-12T04:46:25;100624.00;;;23.50
20289;BMP180;10303;51.960;8.372;2023-08-12T04:48:52;100617.00;;;23.50
20289;BMP180;10303;51.960;8.372;2023-08-12T04:51:18;100621.00;;;23.60
20289;BMP180;10303;51.960;8.372;2023-08-12T04:53:44;100603.00;;;23.60
20289;BMP180;10303;51.960;8.372;2023-08-12T04:56:10;100605.00;;;23.60
20289;BMP180;10303;51.960;8.372;2023-08-12T04:58:36;100612.00;;;23.60
20289;BMP180;10303;51.960;8.372;2023-08-12T05:01:02;100601.00;;;23.60
20289;BMP180;10303;51.960;8.372;2023-08-12T05:03:29;100605.00;;;23.60
20289;BMP180;10303;51.960;8.372;2023-08-12T05:05:56;100607.00;;;23.60
20289;BMP180;10303;51.960;8.372;2023-08-12T05:08:25;100600.00;;;23.60
20289;BMP180;10303;51.960;8.372;2023-08-12T05:10:52;100599.00;;;23.70
20289;BMP180;10303;51.960;8.372;2023-08-12T05:13:19;100596.00;;;23.70
20289;BMP180;10303;51.960;8.372;2023-08-12T05:15:47;100590.00;;;23.70
20289;BMP180;10303;51.960;8.372;2023-08-12T05:18:14;100591.00;;;23.70
20289;BMP180;10303;51.960;8.372;2023-08-12T05:20:41;100578.00;;;23.70
20289;BMP180;10303;51.960;8.372;2023-08-12T05:23:08;100581.00;;;23.70
20289;BMP180;10303;51.960;8.372;2023-08-12T05:25:34;100577.00;;;23.70
20289;BMP180;10303;51.960;8.372;2023-08-12T05:28:00;100580.00;;;23.80
20289;BMP180;10303;51.960;8.372;2023-08-12T05:30:26;100577.00;;;23.80
20289;BMP180;10303;51.960;8.372;2023-08-12T05:32:52;100583.00;;;23.80
20289;BMP180;10303;51.960;8.372;2023-08-12T05:35:18;100583.00;;;23.80
20289;BMP180;10303;51.960;8.372;2023-08-12T05:37:44;100577.00;;;23.80
20289;BMP180;10303;51.960;8.372;2023-08-12T05:40:11;100567.00;;;23.90
20289;BMP180;10303;51.960;8.372;2023-08-12T05:42:37;100560.00;;;23.90
20289;BMP180;10303;51.960;8.372;2023-08-12T05:45:04;100558.00;;;23.90
20289;BMP180;10303;51.960;8.372;2023-08-12T05:47:30;100564.00;;;23.90
20289;BMP180;10303;51.960;8.372;2023-08-12T05:49:58;100570.00;;;23.90
20289;BMP180;10303;51.960;8.372;2023-08-12T05:52:24;100560.00;;;24.00
20289;BMP180;10303;51.960;8.372;2023-08-12T05:54:50;100561.00;;;24.00
20289;BMP180;10303;51.960;8.372;2023-08-12T05:57:15;100558.00;;;24.00
20289;BMP180;10303;51.960;8.372;2023-08-12T05:59:41;100561.00;;;24.10
20289;BMP180;10303;51.960;8.372;2023-08-12T06:02:07;100562.00;;;24.10
20289;BMP180;10303;51.960;8.372;2023-08-12T06:04:35;100557.00;;;24.20
20289;BMP180;10303;51.960;8.372;2023-08-12T06:07:01;100559.00;;;24.20
20289;BMP180;10303;51.960;8.372;2023-08-12T06:09:27;100557.00;;;24.20
20289;BMP180;10303;51.960;8.372;2023-08-12T06:11:53;100549.00;;;24.30
20289;BMP180;10303;51.960;8.372;2023-08-12T06:14:19;100543.00;;;24.30
20289;BMP180;10303;51.960;8.372;2023-08-12T06:16:45;100536.00;;;24.40
20289;BMP180;10303;51.960;8.372;2023-08-12T06:19:11;100533.00;;;24.40
20289;BMP180;10303;51.960;8.372;2023-08-12T06:21:37;100526.00;;;24.40
20289;BMP180;10303;51.960;8.372;2023-08-12T06:24:03;100527.00;;;24.40
20289;BMP180;10303;51.960;8.372;2023-08-12T06:26:29;100524.00;;;24.50
20289;BMP180;10303;51.960;8.372;2023-08-12T06:28:55;100522.00;;;24.50
20289;BMP180;10303;51.960;8.372;2023-08-12T06:31:21;100529.00;;;24.50
20289;BMP180;10303;51.960;8.372;2023-08-12T06:33:47;100517.00;;;24.60
20289;BMP180;10303;51.960;8.372;2023-08-12T06:36:13;100533.00;;;24.60
20289;BMP180;10303;51.960;8.372;2023-08-12T06:38:39;100521.00;;;24.60
20289;BMP180;10303;51.960;8.372;2023-08-12T06:41:05;100522.00;;;24.70
20289;BMP180;10303;51.960;8.372;2023-08-12T06:43:31;100519.00;;;24.80
20289;BMP180;10303;51.960;8.372;2023-08-12T06:45:57;100511.00;;;24.80
20289;BMP180;10303;51.960;8.372;2023-08-12T06:48:23;100503.00;;;24.90
20289;BMP180;10303;51.960;8.372;2023-08-12T06:50:56;100502.00;;;24.90
20289;BMP180;10303;51.960;8.372;2023-08-12T06:53:22;100511.00;;;25.00
20289;BMP180;10303;51.960;8.372;2023-08-12T06:55:48;100517.00;;;25.00
20289;BMP180;10303;51.960;8.372;2023-08-12T06:58:14;100508.00;;;25.10
20289;BMP180;10303;51.960;8.372;2023-08-12T07:00:40;100515.00;;;25.10
20289;BMP180;10303;51.960;8.372;2023-08-12T07:03:07;100511.00;;;25.20
20289;BMP180;10303;51.960;8.372;2023-08-12T07:05:33;100517.00;;;25.20
20289;BMP180;10303;51.960;8.372;2023-08-12T07:07:59;100520.00;;;25.30
20289;BMP180;10303;51.960;8.372;2023-08-12T07:10:25;100519.00;;;25.30
20289;BMP180;10303;51.960;8.372;2023-08-12T07:12:51;100536.00;;;25.40
20289;BMP180;10303;51.960;8.372;2023-08-12T07:15:17;100535.00;;;25.40
20289;BMP180;10303;51.960;8.372;2023-08-12T07:17:43;100538.00;;;25.50
20289;BMP180;10303;51.960;8.372;2023-08-12T07:20:09;100533.00;;;25.50
20289;BMP180;10303;51.960;8.372;2023-08-12T07:22:35;100525.00;;;25.60
20289;BMP180;10303;51.960;8.372;2023-08-12T07:25:01;100527.00;;;25.60
20289;BMP180;10303;51.960;8.372;2023-08-12T07:27:28;100530.00;;;25.70
20289;BMP180;10303;51.960;8.372;2023-08-12T07:29:54;100517.00;;;25.70
20289;BMP180;10303;51.960;8.372;2023-08-12T07:32:21;100522.00;;;25.80
20289;BMP180;10303;51.960;8.372;2023-08-12T07:34:47;100526.00;;;25.80
20289;BMP180;10303;51.960;8.372;2023-08-12T07:37:13;100525.00;;;25.80
20289;BMP180;10303;51.960;8.372;2023-08-12T07:39:39;100531.00;;;25.80
20289;BMP180;10303;51.960;8.372;2023-08-12T07:42:05;100529.00;;;25.80
20289;BMP180;10303;51.960;8.372;2023-08-12T07:44:31;100528.00;;;25.90
20289;BMP180;10303;51.960;8.372;2023-08-12T07:46:57;100521.00;;;25.90
20289;BMP180;10303;51.960;8.372;2023-08-12T07:49:23;100516.00;;;25.90
20289;BMP180;10303;51.960;8.372;2023-08-12T07:51:50;100523.00;;;25.90
20289;BMP180;10303;51.960;8.372;2023-08-12T07:54:16;100515.00;;;26.00
20289;BMP180;10303;51.960;8.372;2023-08-12T07:56:42;100511.00;;;26.00
20289;BMP180;10303;51.960;8.372;2023-08-12T07:59:08;100511.00;;;26.10
20289;BMP180;10303;51.960;8.372;2023-08-12T08:01:35;100514.00;;;26.10
20289;BMP180;10303;51.960;8.372;2023-08-12T08:04:01;100515.00;;;26.10
20289;BMP180;10303;51.960;8.372;2023-08-12T08:06:27;100507.00;;;26.10
20289;BMP180;10303;51.960;8.372;2023-08-12T08:08:54;100505.00;;;26.10
20289;BMP180;10303;51.960;8.372;2023-08-12T08:11:23;100491.00;;;26.20
20289;BMP180;10303;51.960;8.372;2023-08-12T08:13:51;100493.00;;;26.20
20289;BMP180;10303;51.960;8.372;2023-08-12T08:16:17;100483.00;;;26.20
20289;BMP180;10303;51.960;8.372;2023-08-12T08:18:43;100479.00;;;26.20
20289;BMP180;10303;51.960;8.372;2023-08-12T08:21:09;100476.00;;;26.10
20289;BMP180;10303;51.960;8.372;2023-08-12T08:23:36;100482.00;;;26.10
20289;BMP180;10303;51.960;8.372;2023-08-12T08:26:02;100477.00;;;26.10
20289;BMP180;10303;51.960;8.372;2023-08-12T08:28:28;100480.00;;;26.10
20289;BMP180;10303;51.960;8.372;2023-08-12T08:30:55;100474.00;;;26.10
20289;BMP180;10303;51.960;8.372;2023-08-12T08:33:21;100489.00;;;26.00
20289;BMP180;10303;51.960;8.372;2023-08-12T08:35:48;100480.00;;;26.00
20289;BMP180;10303;51.960;8.372;2023-08-12T08:38:14;100480.00;;;26.00
20289;BMP180;10303;51.960;8.372;2023-08-12T08:40:40;100477.00;;;26.00
20289;BMP180;10303;51.960;8.372;2023-08-12T08:43:08;100469.00;;;26.00
20289;BMP180;10303;51.960;8.372;2023-08-12T08:45:34;100467.00;;;26.00
20289;BMP180;10303;51.960;8.372;2023-08-12T08:48:02;100476.00;;;26.00
20289;BMP180;10303;51.960;8.372;2023-08-12T08:50:32;100475.00;;;25.90
20289;BMP180;10303;51.960;8.372;2023-08-12T08:53:01;100489.00;;;26.00
20289;BMP180;10303;51.960;8.372;2023-08-12T08:55:27;100492.00;;;26.00
20289;BMP180;10303;51.960;8.372;2023-08-12T08:57:54;100490.00;;;26.00
20289;BMP180;10303;51.960;8.372;2023-08-12T09:00:22;100489.00;;;26.00
20289;BMP180;10303;51.960;8.372;2023-08-12T09:02:50;100485.00;;;26.10
20289;BMP180;10303;51.960;8.372;2023-08-12T09:05:17;100473.00;;;26.20
20289;BMP180;10303;51.960;8.372;2023-08-12T09:07:44;100464.00;;;26.20
20289;BMP180;10303;51.960;8.372;2023-08-12T09:10:11;100474.00;;;26.30
20289;BMP180;10303;51.960;8.372;2023-08-12T09:12:38;100469.00;;;26.40
20289;BMP180;10303;51.960;8.372;2023-08-12T09:15:05;100466.00;;;26.50
20289;BMP180;10303;51.960;8.372;2023-08-12T09:17:33;100462.00;;;26.70
20289;BMP180;10303;51.960;8.372;2023-08-12T09:20:00;100454.00;;;26.90
20289;BMP180;10303;51.960;8.372;2023-08-12T09:22:26;100466.00;;;27.00
20289;BMP180;10303;51.960;8.372;2023-08-12T09:25:02;100461.00;;;27.00
20289;BMP180;10303;51.960;8.372;2023-08-12T09:27:31;100459.00;;;27.10
20289;BMP180;10303;51.960;8.372;2023-08-12T09:29:58;100462.00;;;27.10
20289;BMP180;10303;51.960;8.372;2023-08-12T09:32:25;100459.00;;;27.10
20289;BMP180;10303;51.960;8.372;2023-08-12T09:34:54;100435.00;;;27.20
20289;BMP180;10303;51.960;8.372;2023-08-12T09:37:23;100438.00;;;27.30
20289;BMP180;10303;51.960;8.372;2023-08-12T09:39:51;100439.00;;;27.30
20289;BMP180;10303;51.960;8.372;2023-08-12T09:42:18;100449.00;;;27.40
20289;BMP180;10303;51.960;8.372;2023-08-12T09:44:45;100441.00;;;27.50
20289;BMP180;10303;51.960;8.372;2023-08-12T09:47:11;100437.00;;;27.50
20289;BMP180;10303;51.960;8.372;2023-08-12T09:49:38;100441.00;;;27.60
20289;BMP180;10303;51.960;8.372;2023-08-12T09:52:06;100440.00;;;27.60
20289;BMP180;10303;51.960;8.372;2023-08-12T09:54:34;100441.00;;;27.70
20289;BMP180;10303;51.960;8.372;2023-08-12T09:57:04;100448.00;;;27.70
20289;BMP180;10303;51.960;8.372;2023-08-12T09:59:34;100444.00;;;27.80
20289;BMP180;10303;51.960;8.372;2023-08-12T10:02:03;100446.00;;;27.80
20289;BMP180;10303;51.960;8.372;2023-08-12T10:04:38;100441.00;;;27.90
20289;BMP180;10303;51.960;8.372;2023-08-12T10:07:10;100446.00;;;27.90
20289;BMP180;10303;51.960;8.372;2023-08-12T10:09:37;100445.00;;;28.00
20289;BMP180;10303;51.960;8.372;2023-08-12T10:12:05;100442.00;;;28.00
20289;BMP180;10303;51.960;8.372;2023-08-12T10:14:32;100454.00;;;27.90
20289;BMP180;10303;51.960;8.372;2023-08-12T10:16:59;100448.00;;;27.90
20289;BMP180;10303;51.960;8.372;2023-08-12T10:19:27;100449.00;;;27.90
20289;BMP180;10303;51.960;8.372;2023-08-12T10:21:56;100450.00;;;27.80
20289;BMP180;10303;51.960;8.372;2023-08-12T10:24:27;100445.00;;;27.70
20289;BMP180;10303;51.960;8.372;2023-08-12T10:26:54;100438.00;;;27.70
20289;BMP180;10303;51.960;8.372;2023-08-12T10:29:23;100438.00;;;27.60
20289;BMP180;10303;51.960;8.372;2023-08-12T10:31:50;100442.00;;;27.60
20289;BMP180;10303;51.960;8.372;2023-08-12T10:34:24;100453.00;;;27.50
20289;BMP180;10303;51.960;8.372;2023-08-12T10:37:02;100440.00;;;27.50
20289;BMP180;10303;51.960;8.372;2023-08-12T10:39:32;100436.00;;;27.50
20289;BMP180;10303;51.960;8.372;2023-08-12T10:41:58;100448.00;;;27.50
20289;BMP180;10303;51.960;8.372;2023-08-12T10:44:51;100439.00;;;27.50
20289;BMP180;10303;51.960;8.372;2023-08-12T10:47:17;100440.00;;;27.50
20289;BMP180;10303;51.960;8.372;2023-08-12T10:49:48;100437.00;;;27.50
20289;BMP180;10303;51.960;8.372;2023-08-12T10:52:31;100437.00;;;27.60
20289;BMP180;10303;51.960;8.372;2023-08-12T10:55:20;100425.00;;;27.60
20289;BMP180;10303;51.960;8.372;2023-08-12T10:57:52;100423.00;;;27.70
20289;BMP180;10303;51.960;8.372;2023-08-12T11:00:26;100413.00;;;27.70
20289;BMP180;10303;51.960;8.372;2023-08-12T11:02:56;100424.00;;;27.80
20289;BMP180;10303;51.960;8.372;2023-08-12T11:05:24;100423.00;;;27.80
20289;BMP180;10303;51.960;8.372;2023-08-12T11:08:02;100426.00;;;27.80
20289;BMP180;10303;51.960;8.372;2023-08-12T11:10:34;100417.00;;;27.90
20289;BMP180;10303;51.960;8.372;2023-08-12T11:13:03;100419.00;;;28.00
20289;BMP180;10303;51.960;8.372;2023-08-12T11:15:45;100414.00;;;28.00
20289;BMP180;10303;51.960;8.372;2023-08-12T11:18:16;100420.00;;;28.00
20289;BMP180;10303;51.960;8.372;2023-08-12T11:20:43;100413.00;;;28.00
20289;BMP180;10303;51.960;8.372;2023-08-12T11:23:10;100414.00;;;28.00
20289;BMP180;10303;51.960;8.372;2023-08-12T11:25:39;100414.00;;;27.90
20289;BMP180;10303;51.960;8.372;2023-08-12T11:28:07;100430.00;;;27.90
20289;BMP180;10303;51.960;8.372;2023-08-12T11:30:33;100418.00;;;27.80
20289;BMP180;10303;51.960;8.372;2023-08-12T11:33:02;100413.00;;;27.70
20289;BMP180;10303;51.960;8.372;2023-08-12T11:35:29;100428.00;;;27.70
20289;BMP180;10303;51.960;8.372;2023-08-12T11:37:57;100422.00;;;27.60
20289;BMP180;10303;51.960;8.372;2023-08-12T11:40:26;100407.00;;;27.60
20289;BMP180;10303;51.960;8.372;2023-08-12T11:42:54;100425.00;;;27.70
20289;BMP180;10303;51.960;8.372;2023-08-12T11:45:25;100416.00;;;27.70
20289;BMP180;10303;51.960;8.372;2023-08-12T11:47:52;100411.00;;;27.60
20289;BMP180;10303;51.960;8.372;2023-08-12T11:50:26;100423.00;;;27.50
20289;BMP180;10303;51.960;8.372;2023-08-12T11:52:55;100407.00;;;27.40
20289;BMP180;10303;51.960;8.372;2023-08-12T11:55:22;100413.00;;;27.40
20289;BMP180;10303;51.960;8.372;2023-08-12T11:57:48;100411.00;;;27.40
20289;BMP180;10303;51.960;8.372;2023-08-12T12:00:16;100402.00;;;27.30
20289;BMP180;10303;51.960;8.372;2023-08-12T12:02:51;100404.00;;;27.40
20289;BMP180;10303;51.960;8.372;2023-08-12T12:05:22;100403.00;;;27.60
20289;BMP180;10303;51.960;8.372;2023-08-12T12:07:49;100398.00;;;27.80
20289;BMP180;10303;51.960;8.372;2023-08-12T12:10:31;100390.00;;;28.00
20289;BMP180;10303;51.960;8.372;2023-08-12T12:12:59;100383.00;;;28.20
20289;BMP180;10303;51.960;8.372;2023-08-12T12:15:25;100391.00;;;28.30
20289;BMP180;10303;51.960;8.372;2023-08-12T12:17:52;100389.00;;;28.30
20289;BMP180;10303;51.960;8.372;2023-08-12T12:20:18;100390.00;;;28.20
20289;BMP180;10303;51.960;8.372;2023-08-12T12:22:47;100390.00;;;28.10
20289;BMP180;10303;51.960;8.372;2023-08-12T12:25:16;100393.00;;;28.10
20289;BMP180;10303;51.960;8.372;2023-08-12T12:27:46;100385.00;;;28.00
20289;BMP180;10303;51.960;8.372;2023-08-12T12:30:16;100386.00;;;27.90
20289;BMP180;10303;51.960;8.372;2023-08-12T12:32:43;100389.00;;;27.90
20289;BMP180;10303;51.960;8.372;2023-08-12T12:35:09;100381.00;;;27.80
20289;BMP180;10303;51.960;8.372;2023-08-12T12:37:36;100389.00;;;27.80
20289;BMP180;10303;51.960;8.372;2023-08-12T12:40:03;100392.00;;;27.70
20289;BMP180;10303;51.960;8.372;2023-08-12T12:42:30;100388.00;;;27.70
20289;BMP180;10303;51.960;8.372;2023-08-12T12:44:56;100389.00;;;27.60
20289;BMP180;10303;51.960;8.372;2023-08-12T12:47:22;100399.00;;;27.60
20289;BMP180;10303;51.960;8.372;2023-08-12T12:49:48;100395.00;;;27.60
20289;BMP180;10303;51.960;8.372;2023-08-12T12:52:14;100402.00;;;27.60
20289;BMP180;10303;51.960;8.372;2023-08-12T12:54:40;100405.00;;;27.50
20289;BMP180;10303;51.960;8.372;2023-08-12T12:57:06;100397.00;;;27.50
20289;BMP180;10303;51.960;8.372;2023-08-12T12:59:32;100396.00;;;27.40
20289;BMP180;10303;51.960;8.372;2023-08-12T13:01:58;100400.00;;;27.40
20289;BMP180;10303;51.960;8.372;2023-08-12T13:04:24;100402.00;;;27.30
20289;BMP180;10303;51.960;8.372;2023-08-12T13:06:50;100409.00;;;27.30
20289;BMP180;10303;51.960;8.372;2023-08-12T13:09:16;100421.00;;;27.20
20289;BMP180;10303;51.960;8.372;2023-08-12T13:11:42;100410.00;;;27.10
20289;BMP180;10303;51.960;8.372;2023-08-12T13:14:08;100406.00;;;27.00
20289;BMP180;10303;51.960;8.372;2023-08-12T13:16:35;100413.00;;;27.00
20289;BMP180;10303;51.960;8.372;2023-08-12T13:19:00;100404.00;;;26.90
20289;BMP180;10303;51.960;8.372;2023-08-12T13:21:27;100411.00;;;26.90
20289;BMP180;10303;51.960;8.372;2023-08-12T13:23:54;100413.00;;;26.90
20289;BMP180;10303;51.960;8.372;2023-08-12T13:26:23;100408.00;;;27.00
20289;BMP180;10303;51.960;8.372;2023-08-12T13:28:49;100411.00;;;27.00
20289;BMP180;10303;51.960;8.372;2023-08-12T13:31:15;100405.00;;;27.10
20289;BMP180;10303;51.960;8.372;2023-08-12T13:33:41;100404.00;;;27.20
20289;BMP180;10303;51.960;8.372;2023-08-12T13:36:08;100402.00;;;27.40
20289;BMP180;10303;51.960;8.372;2023-08-12T13:38:34;100404.00;;;27.50
20289;BMP180;10303;51.960;8.372;2023-08-12T13:41:00;100407.00;;;27.50
20289;BMP180;10303;51.960;8.372;2023-08-12T13:43:26;100404.00;;;27.60
20289;BMP180;10303;51.960;8.372;2023-08-12T13:45:52;100398.00;;;27.70
20289;BMP180;10303;51.960;8.372;2023-08-12T13:48:19;100388.00;;;27.70
20289;BMP180;10303;51.960;8.372;2023-08-12T13:50:46;100398.00;;;27.80
20289;BMP180;10303;51.960;8.372;2023-08-12T13:53:15;100397.00;;;27.80
20289;BMP180;10303;51.960;8.372;2023-08-12T13:55:41;100405.00;;;27.90
20289;BMP180;10303;51.960;8.372;2023-08-12T13:58:07;100420.00;;;28.00